Latest Coastal Weather Observations for Robe Airport

IDS60701

Issued at 8:05 pm CST Friday 25 July 2014 (issued every 10 minutes, with the page automatically refreshed every 10 minutes)

About coastal observations | Map of coastal stations | Coastal observations for SA | Marine services | Other Formats
Station Details ID: 026105 Name: ROBE AIRFIELD Lat: -37.18 Lon: 139.81 Height: 3.0 m
Data from the previous 72 hours. | See also: Recent months for locations in South Australia
Date/Time
CST
Temp

°C
Wind Pressure Rain
since 9am
mm
Weather Cloud Vis
km
Sea
Height
m
Swell
Dir
 
Speed
knots
Gust
knots
hPa Trend Height
m
Period
s
Dir
25/08:00pm 12.4 WSW 3 5 1020.5 - 0.0 - - - - - - -
25/07:30pm 12.5 WSW 4 6 1020.1 - 0.0 - - - - - - -
25/07:00pm 12.4 WSW 7 12 1019.9 - 0.0 - - - - - - -
25/06:30pm 12.9 WSW 4 6 1019.5 - 0.0 - - - - - - -
25/06:00pm 13.1 WSW 6 10 1019.1 - 0.0 - - - - - - -
25/05:30pm 13.3 WSW 5 7 1018.7 - 0.0 - - - - - - -
25/05:00pm 13.5 WSW 5 8 1018.5 - 0.0 - - - - - - -
25/04:30pm 13.8 WSW 5 9 1018.3 - 0.0 - - - - - - -
25/04:00pm 14.0 W 6 10 1017.8 - 0.0 - - - - - - -
25/03:30pm 15.3 WSW 6 11 1017.3 - 0.0 - - - - - - -
25/03:00pm 14.6 W 6 11 1017.1 - 0.0 - - - - - - -
25/02:30pm 15.9 W 7 11 1016.7 - 0.0 - - - - - - -
25/02:00pm 14.8 WSW 8 13 1016.5 - 0.0 - - - - - - -
25/01:30pm 14.9 WSW 8 12 1016.3 - 0.0 - - - - - - -
25/01:00pm 15.3 WSW 9 15 1016.2 - 0.0 - - - - - - -
25/12:30pm 15.5 WSW 9 14 1016.3 - 0.0 - - - - - - -
25/12:00pm 15.7 WSW 9 17 1016.4 - 0.0 - - - - - - -
25/11:30am 15.4 WSW 8 15 1016.4 - 0.0 - - - - - - -
25/11:00am 15.2 WSW 8 13 1016.3 - 0.0 - - - - - - -
25/10:30am 15.0 WSW 8 13 1016.3 - 0.0 - - - - - - -
25/10:00am 14.4 WSW 7 12 1016.0 - 0.0 - - - - - - -
25/09:30am 14.1 WSW 6 10 1015.5 - 0.0 - - - - - - -
25/09:00am 14.1 SW 7 12 1015.1 - 12.8 - - - - - - -
25/08:30am 13.2 SW 6 9 1014.8 - 12.8 - - - - - - -
25/08:00am 12.5 SW 7 11 1014.2 - 12.8 - - - - - - -
25/07:30am 12.3 SW 7 12 1013.7 - 12.8 - - - - - - -
25/07:00am 12.4 WSW 5 10 1013.1 - 12.8 - - - - - - -
25/06:30am 11.8 WSW 4 5 1012.6 - 11.4 - - - - - - -
25/06:00am 12.1 W 4 6 1012.1 - 11.4 - - - - - - -
25/05:30am 12.2 W 3 5 1011.6 - 11.4 - - - - - - -
25/05:00am 11.5 WNW 3 4 1011.2 - 11.4 - - - - - - -
25/04:30am 11.3 WNW 2 4 1010.8 - 11.2 - - - - - - -
25/04:00am 11.7 WNW 5 7 1010.6 - 11.2 - - - - - - -
25/03:30am 11.5 WSW 4 9 1010.3 - 10.2 - - - - - - -
25/03:00am 10.2 W 3 4 1010.1 - 10.2 - - - - - - -
25/02:30am 9.2 W 2 3 1009.9 - 10.2 - - - - - - -
25/02:00am 10.7 W 3 5 1009.6 - 10.2 - - - - - - -
25/01:30am 10.6 W 3 4 1009.4 - 10.2 - - - - - - -
25/01:00am 11.1 NW 3 5 1009.1 - 10.2 - - - - - - -
25/12:30am 11.3 NNW 4 6 1009.0 - 8.4 - - - - - - -
25/12:00am 9.6 NNW 2 3 1008.9 - 6.0 - - - - - - -
 
Date/Time
CST
Temp

°C
Wind Pressure Rain
since 9am
mm
Weather Cloud Vis
km
Sea
Height
m
Swell
Dir
 
Speed
knots
Gust
knots
hPa Trend Height
m
Period
s
Dir
24/11:30pm 9.4 N 5 6 1008.8 - 6.0 - - - - - - -
24/11:00pm 8.6 N 5 5 1008.7 - 6.0 - - - - - - -
24/10:30pm 9.9 N 6 7 1008.5 - 6.0 - - - - - - -
24/10:00pm 9.8 NNW 4 5 1008.4 - 6.0 - - - - - - -
24/09:30pm 10.8 NNW 6 8 1008.4 - 6.0 - - - - - - -
24/09:00pm 11.9 NNW 9 12 1008.2 - 6.0 - - - - - - -
24/08:30pm 11.7 NNW 7 9 1008.1 - 6.0 - - - - - - -
24/08:00pm 11.6 NNW 6 9 1007.9 - 6.0 - - - - - - -
24/07:30pm 11.6 NNW 6 8 1007.6 - 6.0 - - - - - - -
24/07:00pm 12.0 N 8 12 1007.2 - 5.8 - - - - - - -
24/06:30pm 12.1 N 8 11 1007.0 - 3.8 - - - - - - -
24/06:00pm 12.1 N 7 12 1006.7 - 1.8 Recent precip. - - - - - -
24/05:30pm 12.1 N 7 10 1006.6 - 1.6 - - - - - - -
24/05:00pm 12.1 N 7 9 1006.3 - 1.2 - - - - - - -
24/04:30pm 12.5 N 7 11 1006.2 - 1.0 - - - - - - -
24/04:00pm 12.5 NNE 5 7 1006.1 - 0.8 - - - - - - -
24/03:30pm 12.0 NE 7 10 1005.8 - 0.8 - - - - - - -
24/03:00pm 12.1 NE 7 9 1005.8 - 0.6 - - - - - - -
24/02:30pm 11.4 NE 8 12 1005.7 - 0.6 - - - - - - -
24/02:00pm 11.2 NE 10 14 1005.7 - 0.6 - - - - - - -
24/01:30pm 11.2 NE 11 16 1006.0 - 0.6 - - - - - - -
24/01:00pm 11.3 NE 11 15 1006.3 - 0.6 - - - - - - -
24/12:30pm 11.9 NE 10 14 1006.7 - 0.6 - - - - - - -
24/12:00pm 11.7 NE 10 15 1007.1 - 0.6 - - - - - - -
24/11:30am 11.6 NE 12 17 1007.5 - 0.6 - - - - - - -
24/11:00am 11.6 NE 11 16 1007.8 - 0.6 - - - - - - -
24/10:30am 10.8 NE 11 18 1008.1 - 0.4 - - - - - - -
24/10:00am 10.9 NE 11 17 1008.2 - 0.0 - - - - - - -
24/09:30am 10.6 ENE 12 17 1008.2 - 0.0 - - - - - - -
24/09:00am 10.2 ENE 10 14 1008.4 - - Recent precip. - - - - - -
24/08:30am 9.8 ENE 11 16 1008.5 - - - - - - - - -
24/08:00am 9.4 ENE 8 12 1008.5 - - - - - - - - -
24/07:30am 9.5 ENE 10 14 1008.5 - - - - - - - - -
24/07:00am 9.4 ENE 9 14 1008.5 - - - - - - - - -
24/06:30am 9.3 ENE 9 13 1008.5 - - - - - - - - -
24/06:00am 9.3 NE 10 14 1008.6 - - - - - - - - -
24/05:30am 9.2 ENE 11 15 1008.7 - - - - - - - - -
24/05:00am 9.1 ENE 11 17 1008.7 - - - - - - - - -
24/04:30am 8.7 ENE 9 12 1008.9 - - - - - - - - -
24/04:00am 8.7 ENE 11 17 1009.3 - - - - - - - - -
24/03:30am 8.7 ENE 10 15 1009.6 - - - - - - - - -
24/03:00am 8.7 ENE 10 15 1009.9 - 5.0 - - - - - - -
24/02:30am 8.7 ENE 10 14 1010.5 - - - - - - - - -
24/02:00am 8.5 ENE 9 14 1010.8 - - - - - - - - -
24/01:30am 8.4 ENE 8 11 1011.4 - - - - - - - - -
24/01:00am 8.3 ENE 8 12 1012.0 - - - - - - - - -
24/12:30am 8.2 ENE 7 10 1012.9 - - - - - - - - -
24/12:00am 8.1 ENE 5 7 1013.5 - - Rain - - - - - -
 
Date/Time
CST
Temp

°C
Wind Pressure Rain
since 9am
mm
Weather Cloud Vis
km
Sea
Height
m
Swell
Dir
 
Speed
knots
Gust
knots
hPa Trend Height
m
Period
s
Dir
23/11:30pm 8.3 ENE 6 8 1014.0 - - - - - - - - -
23/11:00pm 8.2 NE 6 8 1014.5 - - - - - - - - -
23/10:30pm 8.6 ENE 7 9 1014.5 - - - - - - - - -
23/10:00pm 8.7 NE 7 9 1014.8 - - - - - - - - -
23/09:30pm 8.8 NE 7 9 1015.1 - - - - - - - - -
23/09:00pm 9.1 NNE 7 10 1015.1 - - - - - - - - -
23/08:30pm 10.2 NNE 9 12 1014.5 - - - - - - - - -
23/08:00pm 10.1 ENE 10 15 1014.0 - - - - - - - - -
23/07:30pm 9.9 ENE 10 14 1014.2 - - - - - - - - -
23/07:00pm 9.7 E 9 12 1014.3 - - - - - - - - -
23/06:30pm 10.3 ENE 7 11 1014.8 - - - - - - - - -
23/06:00pm 10.4 ENE 8 10 1014.9 - - - - - - - - -
23/05:30pm 10.6 ENE 8 12 1015.1 - - - - - - - - -
23/05:00pm 11.0 ENE 7 10 1015.2 - - - - - - - - -
23/04:30pm 11.2 ENE 8 10 1015.5 - - - - - - - - -
23/01:00pm 12.0 ENE 11 15 1016.9 - 0.0 - - - - - - -
23/12:30pm 11.8 NE 11 16 1017.7 - 0.0 - - - - - - -
23/12:00pm 11.9 NE 10 14 1018.5 - 0.0 - - - - - - -
23/11:30am 10.0 NE 11 16 1019.0 - 0.0 - - - - - - -
23/11:00am 8.9 ENE 11 15 1019.5 - 0.0 - - - - - - -
23/10:30am 8.3 NE 8 11 1020.1 - 0.0 - - - - - - -
23/10:00am 7.7 NE 9 12 1020.4 - 0.0 - - - - - - -
23/09:30am 7.5 NE 8 12 1020.5 - 0.0 - - - - - - -
23/09:00am 6.6 NE 9 14 1020.5 - 0.0 - - - - - - -
23/08:30am 5.8 ENE 8 10 1020.7 - 0.0 - - - - - - -
23/08:00am 4.9 ENE 7 9 1020.9 - 0.0 - - - - - - -
23/07:30am 4.6 ENE 5 8 1020.9 - 0.0 - - - - - - -
23/07:00am 4.3 ENE 4 7 1021.1 - 0.0 - - - - - - -
23/06:30am 4.1 ENE 5 6 1021.1 - 0.0 - - - - - - -
23/06:00am 3.7 ENE 4 6 1021.0 - 0.0 - - - - - - -
23/05:30am 2.8 NE 4 5 1021.3 - 0.0 - - - - - - -
23/05:00am 3.0 NE 5 6 1021.1 - 0.0 - - - - - - -
23/04:30am 3.7 NE 5 7 1021.4 - 0.0 - - - - - - -
23/04:00am 4.0 NE 5 7 1021.4 - 0.0 - - - - - - -
23/03:30am 4.2 NE 5 6 1021.5 - 0.0 - - - - - - -
23/03:00am 3.8 NE 3 4 1021.7 - 0.0 - - - - - - -
23/02:30am 3.7 NE 5 6 1021.8 - 0.0 - - - - - - -
23/02:00am 3.6 NE 4 5 1022.0 - 0.0 - - - - - - -
23/01:30am 4.0 NE 6 7 1022.1 - 0.0 - - - - - - -
23/01:00am 4.1 NE 5 6 1022.1 - 0.0 - - - - - - -
23/12:30am 4.5 NE 3 4 1022.1 - 0.0 - - - - - - -
23/12:00am 4.9 NE 4 5 1022.5 - 0.0 - - - - - - -
 
Date/Time
CST
Temp

°C
Wind Pressure Rain
since 9am
mm
Weather Cloud Vis
km
Sea
Height
m
Swell
Dir
 
Speed
knots
Gust
knots
hPa Trend Height
m
Period
s
Dir
22/11:30pm 5.1 ENE 4 5 1022.6 - 0.0 - - - - - - -
22/11:00pm 5.1 ENE 5 6 1022.7 - 0.0 - - - - - - -
22/10:30pm 5.4 ENE 5 6 1022.8 - 0.0 - - - - - - -
22/10:00pm 5.7 ENE 4 4 1023.1 - 0.0 - - - - - - -
22/09:30pm 5.8 ENE 3 4 1023.2 - 0.0 - - - - - - -
22/09:00pm 6.2 ENE 2 3 1023.5 - 0.0 - - - - - - -
22/08:30pm 6.3 ENE 3 3 1023.4 - 0.0 - - - - - - -

Other Formats:

Comma delimited format used in spreadsheet applications
http://www.bom.gov.au/fwo/IDS60701/IDS60701.95816.axf

JavaScript Object Notation format (JSON) in row-major order
http://www.bom.gov.au/fwo/IDS60701/IDS60701.95816.json